createdAt,value
2023-02-27T00:01:31.774Z,1.60
2023-02-27T00:04:23.416Z,1.50
2023-02-27T00:07:15.029Z,1.80
2023-02-27T00:10:08.393Z,2.00
2023-02-27T00:12:59.447Z,1.70
2023-02-27T00:15:51.923Z,1.60
2023-02-27T00:18:43.575Z,1.70
2023-02-27T00:21:36.872Z,1.60
2023-02-27T00:24:28.920Z,1.70
2023-02-27T00:27:20.558Z,1.60
2023-02-27T00:30:15.393Z,1.70
2023-02-27T00:33:06.968Z,1.40
2023-02-27T00:35:59.090Z,1.50
2023-02-27T00:38:51.018Z,1.40
2023-02-27T00:41:42.327Z,1.70
2023-02-27T00:44:33.877Z,1.50
2023-02-27T00:47:25.542Z,1.60
2023-02-27T00:50:17.182Z,1.60
2023-02-27T00:53:08.971Z,1.70
2023-02-27T00:56:01.201Z,1.80
2023-02-27T00:58:52.810Z,1.70
2023-02-27T01:01:45.660Z,1.50
2023-02-27T01:04:37.318Z,1.70
2023-02-27T01:07:28.872Z,1.60
2023-02-27T01:10:20.502Z,1.50
2023-02-27T01:13:12.110Z,1.80
2023-02-27T01:16:03.815Z,1.80
2023-02-27T01:18:55.503Z,1.80
2023-02-27T01:21:47.077Z,1.90
2023-02-27T01:24:38.747Z,1.60
2023-02-27T01:27:30.343Z,1.80
2023-02-27T01:30:22.159Z,1.70
2023-02-27T01:33:13.826Z,1.80
2023-02-27T01:36:10.309Z,1.60
2023-02-27T01:39:01.288Z,1.70
2023-02-27T01:41:52.928Z,1.60
2023-02-27T01:45:07.253Z,2.00
2023-02-27T01:48:02.200Z,1.80
2023-02-27T01:50:56.308Z,1.90
2023-02-27T01:53:48.438Z,1.60
2023-02-27T01:56:39.418Z,1.60
2023-02-27T01:59:31.057Z,1.50
2023-02-27T02:02:24.633Z,1.70
2023-02-27T02:05:16.035Z,1.90
2023-02-27T02:08:07.778Z,1.80
2023-02-27T02:10:59.948Z,1.60
2023-02-27T02:13:52.428Z,1.80
2023-02-27T02:17:11.140Z,1.70
2023-02-27T02:20:36.529Z,2.00
2023-02-27T02:24:16.938Z,1.70
2023-02-27T02:27:30.845Z,1.70
2023-02-27T02:30:43.892Z,1.80
2023-02-27T02:34:11.224Z,1.60
2023-02-27T02:37:42.745Z,1.90
2023-02-27T02:40:38.657Z,1.80
2023-02-27T02:43:30.825Z,1.70
2023-02-27T02:46:27.198Z,1.80
2023-02-27T02:49:21.684Z,1.80
2023-02-27T02:52:14.227Z,1.70
2023-02-27T02:55:07.600Z,1.80
2023-02-27T02:58:01.534Z,1.90
2023-02-27T03:00:55.656Z,1.90
2023-02-27T03:03:48.808Z,1.80
2023-02-27T03:06:41.708Z,1.90
2023-02-27T03:09:34.828Z,1.70
2023-02-27T03:12:26.543Z,2.00
2023-02-27T03:15:19.264Z,1.60
2023-02-27T03:18:18.542Z,2.00
2023-02-27T03:21:11.635Z,1.90
2023-02-27T03:24:03.604Z,1.80
2023-02-27T03:26:55.202Z,1.90
2023-02-27T03:29:48.389Z,2.00
2023-02-27T03:32:42.592Z,2.00
2023-02-27T03:35:38.421Z,1.80
2023-02-27T03:38:32.986Z,2.20
2023-02-27T03:41:27.848Z,1.80
2023-02-27T03:44:23.769Z,1.80
2023-02-27T03:47:14.865Z,1.80
2023-02-27T03:50:07.932Z,2.00
2023-02-27T03:52:59.013Z,2.10
2023-02-27T03:55:50.648Z,2.20
2023-02-27T03:58:43.454Z,2.00
2023-02-27T04:01:35.094Z,2.10
2023-02-27T04:04:27.642Z,1.90
2023-02-27T04:07:24.742Z,1.90
2023-02-27T04:10:27.275Z,1.80
2023-02-27T04:13:28.770Z,2.00
2023-02-27T04:16:31.363Z,2.20
2023-02-27T04:19:32.679Z,1.90
2023-02-27T04:22:31.634Z,1.80
2023-02-27T04:25:36.426Z,2.00
2023-02-27T04:28:31.789Z,1.70
2023-02-27T04:31:25.955Z,1.90
2023-02-27T04:34:19.818Z,1.90
2023-02-27T04:37:11.703Z,1.90
2023-02-27T04:40:06.226Z,2.00
2023-02-27T04:42:57.182Z,2.10
2023-02-27T04:45:50.612Z,2.10
2023-02-27T04:48:44.942Z,2.00
2023-02-27T04:51:40.188Z,2.00
2023-02-27T04:54:33.884Z,1.90
2023-02-27T04:57:26.737Z,1.90
2023-02-27T05:00:20.189Z,2.10
2023-02-27T05:03:13.311Z,2.10
2023-02-27T05:06:05.011Z,1.90
2023-02-27T05:09:00.388Z,1.70
2023-02-27T05:11:52.249Z,2.00
2023-02-27T05:14:45.597Z,2.30
2023-02-27T05:17:37.596Z,2.00
2023-02-27T05:20:31.887Z,1.90
2023-02-27T05:23:26.532Z,2.00
2023-02-27T05:26:19.318Z,1.80
2023-02-27T05:29:13.084Z,1.80
2023-02-27T05:32:08.659Z,2.10
2023-02-27T05:35:05.738Z,1.80
2023-02-27T05:38:00.208Z,2.10
2023-02-27T05:40:53.339Z,2.00
2023-02-27T05:43:45.381Z,2.20
2023-02-27T05:46:39.148Z,1.80
2023-02-27T05:49:31.417Z,1.80
2023-02-27T05:52:25.295Z,1.80
2023-02-27T05:55:18.936Z,2.10
2023-02-27T05:58:14.012Z,1.90
2023-02-27T06:01:07.323Z,2.00
2023-02-27T06:03:58.675Z,2.00
2023-02-27T06:06:52.024Z,2.00
2023-02-27T06:09:43.798Z,2.00
2023-02-27T06:12:35.528Z,2.10
2023-02-27T06:15:27.549Z,1.80
2023-02-27T06:18:19.296Z,2.30
2023-02-27T06:21:11.959Z,2.00
2023-02-27T06:24:03.775Z,2.00
2023-02-27T06:26:55.639Z,2.20
2023-02-27T06:29:47.663Z,2.10
2023-02-27T06:32:40.481Z,1.90
2023-02-27T06:35:32.856Z,2.00
2023-02-27T06:38:23.946Z,2.20
2023-02-27T06:41:15.585Z,1.60
2023-02-27T06:44:07.270Z,2.00
2023-02-27T06:46:58.851Z,2.00
2023-02-27T06:49:50.458Z,2.00
2023-02-27T06:52:42.221Z,2.20
2023-02-27T06:55:33.918Z,2.30
2023-02-27T06:58:25.749Z,2.10
2023-02-27T07:01:18.128Z,2.00
2023-02-27T07:04:09.625Z,2.10
2023-02-27T07:07:32.149Z,2.10
2023-02-27T07:10:14.535Z,2.00
2023-02-27T07:13:05.515Z,2.10
2023-02-27T07:15:57.395Z,2.00
2023-02-27T07:18:48.989Z,1.90
2023-02-27T07:21:40.673Z,2.20
2023-02-27T07:24:32.403Z,2.00
2023-02-27T07:27:24.348Z,1.90
2023-02-27T07:30:17.185Z,2.00
2023-02-27T07:33:08.372Z,2.20
2023-02-27T07:36:00.177Z,1.70
2023-02-27T07:38:51.912Z,1.90
2023-02-27T07:41:43.660Z,2.00
2023-02-27T07:44:35.776Z,1.70
2023-02-27T07:47:27.355Z,2.20
2023-02-27T07:50:19.831Z,1.90
2023-02-27T07:53:12.815Z,1.70
2023-02-27T07:56:06.821Z,1.90
2023-02-27T07:58:57.897Z,1.80
2023-02-27T08:01:49.548Z,1.70
2023-02-27T08:04:41.274Z,1.80
2023-02-27T08:07:32.952Z,1.90
2023-02-27T08:10:24.888Z,1.80
2023-02-27T08:13:20.576Z,1.80
2023-02-27T08:16:12.519Z,2.00
2023-02-27T08:19:04.210Z,1.90
2023-02-27T08:21:55.865Z,1.80
2023-02-27T08:24:48.867Z,1.90
2023-02-27T08:27:40.514Z,1.70
2023-02-27T08:30:33.299Z,1.80
2023-02-27T08:33:25.182Z,1.90
2023-02-27T08:36:17.097Z,2.00
2023-02-27T08:39:09.984Z,2.00
2023-02-27T08:42:01.657Z,2.00
2023-02-27T08:44:53.217Z,2.00
2023-02-27T08:47:46.202Z,1.80
2023-02-27T08:50:37.238Z,1.90
2023-02-27T08:53:29.930Z,1.80
2023-02-27T08:56:22.482Z,1.70
2023-02-27T08:59:14.342Z,1.60
2023-02-27T09:02:06.363Z,1.80
2023-02-27T09:04:57.955Z,1.70
2023-02-27T09:07:49.694Z,1.80
2023-02-27T09:10:41.971Z,1.80
2023-02-27T09:13:33.237Z,1.70
2023-02-27T09:16:25.722Z,1.90
2023-02-27T09:19:17.512Z,1.60
2023-02-27T09:22:09.119Z,1.80
2023-02-27T09:25:00.723Z,2.00
2023-02-27T09:27:52.345Z,1.70
2023-02-27T09:30:44.003Z,1.80
2023-02-27T09:33:35.877Z,1.90
2023-02-27T09:36:27.814Z,1.90
2023-02-27T09:39:19.237Z,2.00
2023-02-27T09:42:15.552Z,2.00
2023-02-27T09:45:11.146Z,1.90
2023-02-27T09:48:04.664Z,2.00
2023-02-27T09:50:56.468Z,1.80
2023-02-27T09:53:48.683Z,2.30
2023-02-27T09:56:43.690Z,1.80
2023-02-27T09:59:37.322Z,2.00
2023-02-27T10:02:39.138Z,2.00
2023-02-27T10:05:34.713Z,2.10
2023-02-27T10:08:26.826Z,2.00
2023-02-27T10:11:20.583Z,2.00
2023-02-27T10:14:18.892Z,2.00
2023-02-27T10:17:15.556Z,1.80
2023-02-27T10:20:11.582Z,2.10
2023-02-27T10:23:04.811Z,2.10
2023-02-27T10:25:56.145Z,1.90
2023-02-27T10:28:47.798Z,1.70
2023-02-27T10:31:39.370Z,2.10
2023-02-27T10:34:31.643Z,1.80
2023-02-27T10:37:23.878Z,2.00
2023-02-27T10:40:16.883Z,1.70
2023-02-27T10:43:08.320Z,1.90
2023-02-27T10:46:03.346Z,1.50
2023-02-27T10:48:54.457Z,1.80
2023-02-27T10:51:47.054Z,2.10
2023-02-27T10:54:38.791Z,2.00
2023-02-27T10:57:33.599Z,1.70
2023-02-27T11:00:35.764Z,2.10
2023-02-27T11:03:29.100Z,1.70
2023-02-27T11:06:25.082Z,1.90
2023-02-27T11:09:22.762Z,2.30
2023-02-27T11:12:20.472Z,2.00
2023-02-27T11:15:26.772Z,1.80
2023-02-27T11:18:29.225Z,1.80
2023-02-27T11:21:23.793Z,1.70
2023-02-27T11:24:21.979Z,1.90
2023-02-27T11:27:23.007Z,1.70
2023-02-27T11:30:25.305Z,1.90
2023-02-27T11:33:20.885Z,1.80
2023-02-27T11:36:13.158Z,1.80
2023-02-27T11:39:05.127Z,2.60
2023-02-27T11:41:56.423Z,1.90
2023-02-27T11:44:55.258Z,2.10
2023-02-27T11:47:47.908Z,2.00
2023-02-27T11:51:12.098Z,2.10
2023-02-27T11:54:11.679Z,1.70
2023-02-27T11:57:05.247Z,2.10
2023-02-27T11:59:58.363Z,1.80
2023-02-27T12:02:55.293Z,2.10
2023-02-27T12:08:42.434Z,2.00
2023-02-27T12:11:35.628Z,1.90
2023-02-27T12:14:29.884Z,1.70
2023-02-27T12:17:24.489Z,1.80
2023-02-27T12:20:26.373Z,1.80
2023-02-27T12:23:20.659Z,1.90
2023-02-27T12:26:17.763Z,1.90
2023-02-27T12:29:13.258Z,2.20
2023-02-27T12:32:06.323Z,2.00
2023-02-27T12:35:00.230Z,2.00
2023-02-27T12:37:51.305Z,2.00
2023-02-27T12:40:47.274Z,1.80
2023-02-27T12:46:38.437Z,1.70
2023-02-27T12:49:37.987Z,1.80
2023-02-27T12:52:34.580Z,1.80
2023-02-27T12:55:28.919Z,2.10
2023-02-27T12:58:29.904Z,1.80
2023-02-27T13:01:30.275Z,1.80
2023-02-27T13:04:25.363Z,1.90
2023-02-27T13:07:23.100Z,1.90
2023-02-27T13:10:17.726Z,1.50
2023-02-27T13:13:13.699Z,2.00
2023-02-27T13:16:06.196Z,1.90
2023-02-27T13:18:59.796Z,1.60
2023-02-27T13:21:55.180Z,1.70
2023-02-27T13:24:48.346Z,1.80
2023-02-27T13:27:41.179Z,2.00
2023-02-27T13:30:33.942Z,1.90
2023-02-27T13:33:30.408Z,1.60
2023-02-27T13:36:24.611Z,1.90
2023-02-27T13:40:01.584Z,1.80
2023-02-27T13:43:00.409Z,1.90
2023-02-27T13:45:56.974Z,1.90
2023-02-27T13:48:53.923Z,2.00
2023-02-27T13:51:49.273Z,1.80
2023-02-27T13:54:43.334Z,1.80
2023-02-27T13:57:35.389Z,2.00
2023-02-27T14:00:29.241Z,1.60
2023-02-27T14:03:24.043Z,1.90
2023-02-27T14:06:15.047Z,1.80
2023-02-27T14:09:14.860Z,2.00
2023-02-27T14:12:08.667Z,1.90
2023-02-27T14:15:00.400Z,1.80
2023-02-27T14:17:56.811Z,2.00
2023-02-27T14:20:52.044Z,1.80
2023-02-27T14:23:47.581Z,1.90
2023-02-27T14:29:33.469Z,1.70
2023-02-27T14:32:25.719Z,1.90
2023-02-27T14:35:19.137Z,2.00
2023-02-27T14:38:12.641Z,2.10
2023-02-27T14:41:14.075Z,1.80
2023-02-27T14:44:05.823Z,1.80
2023-02-27T14:46:58.160Z,2.00
2023-02-27T14:49:49.886Z,1.90
2023-02-27T14:52:45.128Z,1.90
2023-02-27T14:55:37.516Z,1.70
2023-02-27T14:58:28.584Z,1.80
2023-02-27T15:01:20.279Z,1.70
2023-02-27T15:04:17.355Z,1.70
2023-02-27T15:07:13.848Z,1.80
2023-02-27T15:10:07.146Z,1.70
2023-02-27T15:12:58.217Z,1.90
2023-02-27T15:15:52.241Z,2.00
2023-02-27T15:18:44.053Z,1.80
2023-02-27T15:21:38.923Z,1.70
2023-02-27T15:24:40.603Z,1.70
2023-02-27T15:27:39.388Z,1.80
2023-02-27T15:30:31.193Z,1.80
2023-02-27T15:33:24.676Z,1.80
2023-02-27T15:36:21.940Z,1.70
2023-02-27T15:39:18.811Z,1.70
2023-02-27T15:42:10.637Z,1.80
2023-02-27T15:45:02.404Z,1.40
2023-02-27T15:47:54.975Z,1.60
2023-02-27T15:50:47.065Z,1.80
2023-02-27T15:53:38.407Z,1.60
2023-02-27T15:56:31.902Z,1.70
2023-02-27T15:59:23.258Z,1.70
2023-02-27T16:19:28.642Z,1.80
2023-02-27T16:22:20.766Z,1.70
2023-02-27T16:25:18.440Z,1.60
2023-02-27T16:28:14.923Z,2.30
2023-02-27T16:31:06.282Z,1.60
2023-02-27T16:33:59.582Z,1.70
2023-02-27T16:36:56.273Z,1.70
2023-02-27T16:39:47.324Z,1.70
2023-02-27T16:42:38.413Z,1.50
2023-02-27T16:45:30.742Z,1.70
2023-02-27T16:48:22.263Z,1.70
2023-02-27T16:51:17.827Z,2.00
2023-02-27T16:54:11.103Z,1.50
2023-02-27T16:57:02.204Z,1.70
2023-02-27T16:59:53.230Z,1.70
2023-02-27T17:02:44.394Z,1.80
2023-02-27T17:05:35.475Z,1.60
2023-02-27T17:08:26.574Z,1.80
2023-02-27T17:11:17.985Z,1.70
2023-02-27T17:14:09.119Z,1.90
2023-02-27T17:17:00.194Z,1.70
2023-02-27T17:19:51.378Z,1.70
2023-02-27T17:22:44.490Z,1.80
2023-02-27T17:25:35.621Z,1.70
2023-02-27T17:28:26.771Z,1.50
2023-02-27T17:31:22.841Z,1.60
2023-02-27T17:34:13.896Z,1.60
2023-02-27T17:37:05.112Z,1.80
2023-02-27T17:39:56.282Z,1.80
2023-02-27T17:42:51.258Z,1.60
2023-02-27T17:45:42.586Z,1.60
2023-02-27T17:48:33.773Z,1.70
2023-02-27T17:51:24.951Z,1.60
2023-02-27T17:54:16.052Z,1.70
2023-02-27T17:57:10.412Z,1.60
2023-02-27T18:00:02.784Z,1.70
2023-02-27T18:02:54.076Z,1.60
2023-02-27T18:05:51.639Z,1.50
2023-02-27T18:08:42.749Z,1.50
2023-02-27T18:11:33.895Z,1.60
2023-02-27T18:14:24.973Z,1.70
2023-02-27T18:17:16.018Z,1.80
2023-02-27T18:20:09.092Z,1.80
2023-02-27T18:23:00.181Z,1.50
2023-02-27T18:25:57.033Z,1.70
2023-02-27T18:28:48.822Z,1.70
2023-02-27T18:31:40.961Z,1.70
2023-02-27T18:34:32.106Z,1.80
2023-02-27T18:37:23.239Z,1.80
2023-02-27T18:40:16.646Z,1.80
2023-02-27T18:43:07.838Z,1.70
2023-02-27T18:45:59.698Z,1.50
2023-02-27T18:48:51.417Z,1.70
2023-02-27T18:51:44.000Z,1.80
2023-02-27T18:54:36.315Z,1.60
2023-02-27T18:57:27.874Z,1.90
2023-02-27T19:00:21.656Z,1.70
2023-02-27T19:03:12.813Z,1.80
2023-02-27T19:06:04.050Z,1.90
2023-02-27T19:08:55.348Z,2.00
2023-02-27T19:11:47.850Z,1.90
2023-02-27T19:14:39.441Z,2.10
2023-02-27T19:17:31.402Z,2.00
2023-02-27T19:20:22.522Z,1.80
2023-02-27T19:23:14.201Z,2.10
2023-02-27T19:26:06.160Z,2.50
2023-02-27T19:28:57.890Z,2.40
2023-02-27T19:31:50.035Z,1.90
2023-02-27T19:34:42.781Z,2.00
2023-02-27T19:37:34.875Z,2.20
2023-02-27T19:40:27.423Z,2.20
2023-02-27T19:43:19.270Z,1.90
2023-02-27T19:46:12.282Z,1.90
2023-02-27T19:49:04.847Z,1.90
2023-02-27T19:51:55.956Z,2.00
2023-02-27T19:54:47.595Z,2.00
2023-02-27T19:57:39.272Z,2.30
2023-02-27T20:00:31.361Z,2.20
2023-02-27T20:03:23.211Z,2.00
2023-02-27T20:06:19.719Z,2.20
2023-02-27T20:09:14.716Z,2.00
2023-02-27T20:12:06.751Z,2.00
2023-02-27T20:14:57.798Z,2.00
2023-02-27T20:17:49.754Z,2.10
2023-02-27T20:20:41.846Z,1.90
2023-02-27T20:23:34.201Z,1.90
2023-02-27T20:26:28.084Z,2.10
2023-02-27T20:29:21.241Z,2.20
2023-02-27T20:32:12.471Z,2.00
2023-02-27T20:35:06.557Z,2.10
2023-02-27T20:37:57.930Z,1.90
2023-02-27T20:40:49.662Z,2.00
2023-02-27T20:43:42.910Z,2.20
2023-02-27T20:46:34.968Z,2.20
2023-02-27T20:49:26.867Z,2.20
2023-02-27T20:52:18.532Z,2.00
2023-02-27T20:55:11.760Z,2.20
2023-02-27T20:58:03.017Z,1.80
2023-02-27T21:00:55.075Z,1.80
2023-02-27T21:03:47.492Z,2.30
2023-02-27T21:06:38.625Z,1.90
2023-02-27T21:09:30.320Z,1.90
2023-02-27T21:12:21.980Z,1.90
2023-02-27T21:15:14.242Z,2.00
2023-02-27T21:18:05.834Z,1.90
2023-02-27T21:20:59.151Z,1.90
2023-02-27T21:23:50.924Z,1.90
2023-02-27T21:26:42.623Z,2.00
2023-02-27T21:29:34.237Z,2.10
2023-02-27T21:32:26.159Z,1.70
2023-02-27T21:35:18.178Z,1.80
2023-02-27T21:38:09.859Z,1.90
2023-02-27T21:41:01.569Z,2.10
2023-02-27T21:43:57.958Z,2.10
2023-02-27T21:46:49.115Z,1.80
2023-02-27T21:49:40.733Z,1.90
2023-02-27T21:52:33.667Z,2.00
2023-02-27T21:55:25.495Z,2.10
2023-02-27T21:58:17.305Z,1.90
2023-02-27T22:01:16.095Z,2.00
2023-02-27T22:04:07.838Z,2.10
2023-02-27T22:06:59.451Z,2.30
2023-02-27T22:09:52.625Z,2.30
2023-02-27T22:12:44.684Z,2.10
2023-02-27T22:15:37.475Z,2.30
2023-02-27T22:18:29.210Z,2.50
2023-02-27T22:21:22.541Z,2.30
2023-02-27T22:24:13.716Z,2.40
2023-02-27T22:27:05.486Z,2.30
2023-02-27T22:29:57.158Z,2.30
2023-02-27T22:32:48.569Z,2.50
2023-02-27T22:35:40.305Z,2.50
2023-02-27T22:38:32.661Z,2.10
2023-02-27T22:41:26.194Z,2.30
2023-02-27T22:44:18.151Z,2.40
2023-02-27T22:47:11.070Z,2.50
2023-02-27T22:50:04.137Z,2.20
2023-02-27T22:52:55.816Z,2.40
2023-02-27T22:55:54.288Z,2.40
2023-02-27T22:58:47.804Z,2.20
2023-02-27T23:01:39.882Z,2.30
2023-02-27T23:04:32.121Z,2.20
2023-02-27T23:07:23.815Z,2.30
2023-02-27T23:10:15.756Z,2.50
2023-02-27T23:13:07.390Z,2.50
2023-02-27T23:15:59.039Z,2.80
2023-02-27T23:18:51.599Z,2.60
2023-02-27T23:21:42.971Z,2.70
2023-02-27T23:24:34.612Z,2.50
2023-02-27T23:27:26.649Z,2.70
2023-02-27T23:30:18.837Z,2.90
2023-02-27T23:33:10.391Z,2.60
2023-02-27T23:36:02.232Z,2.60
2023-02-27T23:38:53.949Z,2.50
2023-02-27T23:41:45.564Z,2.50
2023-02-27T23:44:37.194Z,2.20
2023-02-27T23:47:44.865Z,2.30
2023-02-27T23:50:37.667Z,2.50
2023-02-27T23:53:29.221Z,2.60
2023-02-27T23:56:21.979Z,2.90
2023-02-27T23:59:13.246Z,2.80
